Flight Track Log - Related Links

Times and Time Zones

All times are in EDT time to prevent confusion due to time zone crossing. See the CCA4230 flight status page for this flight to view local times or setup timezone preferences in your user account.

Time Position Orientation Groundspeed Altitude Reporting Facility
EDT Latitude Longitude Course Direction KTS MPH feet Rate Location/Type
Tue 08:45:00 AM 26.2404 118.8213 292° West  Level Estimated
Tue 08:46:00 AM 26.2740 118.7275 292° West  Level Estimated
Tue 08:47:00 AM 26.3075 118.6336 292° West  Level Estimated
Tue 08:48:00 AM 26.3410 118.5397 292° West  Level Estimated
Tue 08:49:00 AM 26.3745 118.4457 292° West  Level Estimated
Tue 08:50:00 AM 26.4079 118.3517 292° West  Level Estimated
Tue 08:51:00 AM 26.4412 118.2576 292° West  Level Estimated
Tue 08:52:00 AM 26.4744 118.1635 292° West  Level Estimated
Tue 08:53:00 AM 26.5076 118.0693 292° West  Level Estimated
Tue 08:54:00 AM 26.5407 117.9750 291° West  Level Estimated
Tue 08:55:00 AM 26.5738 117.8807 291° West  Level Estimated
Tue 08:56:00 AM 26.6068 117.7863 291° West  Level Estimated
Tue 08:57:00 AM 26.6397 117.6919 291° West  Level Estimated
Tue 08:58:00 AM 26.6726 117.5974 291° West  Level Estimated
Tue 08:59:00 AM 26.7054 117.5029 291° West  Level Estimated
Tue 09:00:00 AM 26.7382 117.4083 291° West  Level Estimated
Tue 09:01:00 AM 26.7709 117.3137 291° West  Level Estimated
Tue 09:02:00 AM 26.8035 117.2190 291° West  Level Estimated
Tue 09:03:00 AM 26.8361 117.1243 291° West  Level Estimated
Tue 09:04:00 AM 26.8686 117.0295 291° West  Level Estimated
Tue 09:05:00 AM 26.9010 116.9346 291° West  Level Estimated
Tue 09:06:00 AM 26.9334 116.8397 291° West  Level Estimated
Tue 09:07:00 AM 26.9657 116.7447 291° West  Level Estimated
Tue 09:08:00 AM 26.9980 116.6497 291° West  Level Estimated
Tue 09:09:00 AM 27.0301 116.5546 291° West  Level Estimated
Tue 09:10:00 AM 27.0623 116.4595 291° West  Level Estimated
Tue 09:11:00 AM 27.0943 116.3643 291° West  Level Estimated
Tue 09:12:00 AM 27.1263 116.2691 291° West  Level Estimated
Tue 09:13:00 AM 27.1582 116.1738 291° West  Level Estimated
Tue 09:14:00 AM 27.1901 116.0785 291° West  Level Estimated
Tue 09:15:00 AM 27.2219 115.9831 291° West  Level Estimated
Tue 09:16:00 AM 27.2536 115.8876 291° West  Level Estimated
Tue 09:17:00 AM 27.2853 115.7921 290° West  Level Estimated
Tue 09:18:00 AM 27.3169 115.6965 290° West  Level Estimated
Tue 09:19:00 AM 27.3484 115.6009 290° West  Level Estimated
Tue 09:20:00 AM 27.3799 115.5053 290° West  Level Estimated
Tue 09:21:00 AM 27.4113 115.4095 290° West  Level Estimated
Tue 09:22:00 AM 27.4427 115.3138 290° West  Level Estimated
Tue 09:23:00 AM 27.4740 115.2179 290° West  Level Estimated
Tue 09:24:00 AM 27.5052 115.1220 290° West  Level Estimated
Tue 09:25:00 AM 27.5363 115.0261 290° West  Level Estimated
Tue 09:26:00 AM 27.5674 114.9301 290° West  Level Estimated
Tue 09:27:00 AM 27.5984 114.8341 290° West  Level Estimated
Tue 09:28:00 AM 27.6294 114.7380 290° West  Level Estimated
Tue 09:29:00 AM 27.6602 114.6418 290° West  Level Estimated
Tue 09:30:00 AM 27.6911 114.5456 290° West  Level Estimated
Tue 09:31:00 AM 27.7218 114.4493 290° West  Level Estimated
Tue 09:32:00 AM 27.7525 114.3530 290° West  Level Estimated
Tue 09:33:00 AM 27.7831 114.2566 290° West  Level Estimated
Tue 09:34:00 AM 27.8137 114.1602 290° West  Level Estimated
Tue 09:35:00 AM 27.8442 114.0637 290° West  Level Estimated
Tue 09:36:00 AM 27.8746 113.9671 290° West  Level Estimated
Tue 09:37:00 AM 27.9049 113.8706 290° West  Level Estimated
Tue 09:38:00 AM 27.9352 113.7739 290° West  Level Estimated
Tue 09:39:00 AM 27.9654 113.6772 290° West  Level Estimated
Tue 09:40:00 AM 27.9956 113.5805 289° West  Level Estimated
Tue 09:41:00 AM 28.0256 113.4837 289° West  Level Estimated
Tue 09:42:00 AM 28.0556 113.3868 289° West  Level Estimated
Tue 09:43:00 AM 28.0856 113.2899 289° West  Level Estimated
Tue 09:44:00 AM 28.1154 113.1929 289° West  Level Estimated
Tue 09:45:00 AM 28.1453 113.0959 289° West  Level Estimated
Tue 09:46:00 AM 28.1750 112.9988 289° West  Level Estimated
Tue 09:47:00 AM 28.2047 112.9016 289° West  Level Estimated
Tue 09:48:00 AM 28.2343 112.8045 289° West  Level Estimated
Tue 09:49:00 AM 28.2638 112.7072 289° West  Level Estimated
Tue 09:50:00 AM 28.2933 112.6099 289° West  Level Estimated
Tue 09:51:00 AM 28.3227 112.5126 289° West  Level Estimated
Tue 09:52:00 AM 28.3520 112.4152 289° West  Level Estimated
Tue 09:53:00 AM 28.3812 112.3177 289° West  Level Estimated
Tue 09:54:00 AM 28.4104 112.2202 289° West  Level Estimated
Tue 09:55:00 AM 28.4395 112.1227 289° West  Level Estimated
Tue 09:56:00 AM 28.4686 112.0250 289° West  Level Estimated
Tue 09:57:00 AM 28.4976 111.9274 289° West  Level Estimated
Tue 09:58:00 AM 28.5265 111.8296 289° West  Level Estimated
Tue 09:59:00 AM 28.5553 111.7318 289° West  Level Estimated
Tue 10:00:00 AM 28.5841 111.6340 289° West  Level Estimated
Tue 10:01:00 AM 28.6128 111.5361 288° West  Level Estimated
Tue 10:02:00 AM 28.6414 111.4382 288° West  Level Estimated
Tue 10:03:00 AM 28.6700 111.3402 288° West  Level Estimated
Tue 10:04:00 AM 28.6984 111.2422 288° West  Level Estimated
Tue 10:05:00 AM 28.7269 111.1441 288° West  Level Estimated
Tue 10:06:00 AM 28.7552 111.0459 288° West  Level Estimated
Tue 10:07:00 AM 28.7835 110.9477 288° West  Level Estimated
Tue 10:08:00 AM 28.8117 110.8494 288° West  Level Estimated
Tue 10:09:00 AM 28.8398 110.7511 288° West  Level Estimated
Tue 10:10:00 AM 28.8679 110.6528 288° West  Level Estimated
Tue 10:11:00 AM 28.8958 110.5544 288° West  Level Estimated
Tue 10:12:00 AM 28.9238 110.4559 288° West  Level Estimated
Tue 10:13:00 AM 28.9516 110.3574 288° West  Level Estimated
Tue 10:14:00 AM 28.9794 110.2588 288° West  Level Estimated
Tue 10:15:00 AM 29.0071 110.1601 288° West  Level Estimated
Tue 10:16:00 AM 29.0347 110.0615 288° West  Level Estimated
Tue 10:17:00 AM 29.0623 109.9627 288° West  Level Estimated
Tue 10:18:00 AM 29.0898 109.8639 288° West  Level Estimated
Tue 10:19:00 AM 29.1172 109.7651 288° West  Level Estimated
Tue 10:20:00 AM 29.1445 109.6662 288° West  Level Estimated
Tue 10:21:00 AM 29.1718 109.5673 288° West  Level Estimated
Tue 10:22:00 AM 29.1990 109.4683 287° West  Level Estimated
Tue 10:23:00 AM 29.2261 109.3692 287° West  Level Estimated
Tue 10:24:00 AM 29.2531 109.2701 287° West  Level Estimated
Tue 10:25:00 AM 29.2801 109.1710 287° West  Level Estimated
Tue 10:26:00 AM 29.3070 109.0717 287° West  Level Estimated
Tue 10:27:00 AM 29.3338 108.9725 287° West  Level Estimated
Tue 10:28:00 AM 29.3606 108.8732 287° West  Level Estimated
Tue 10:29:00 AM 29.3873 108.7738 287° West  Level Estimated
Tue 10:30:00 AM 29.4139 108.6744 287° West  Level Estimated
Tue 10:31:00 AM 29.4404 108.5749 287° West  Level Estimated
Tue 10:32:00 AM 29.4669 108.4754 287° West  Level Estimated
Tue 10:33:00 AM 29.4933 108.3758 287° West  Level Estimated
Tue 10:34:00 AM 29.5196 108.2762 287° West  Level Estimated
Tue 10:35:00 AM 29.5458 108.1765 287° West  Level Estimated
Tue 10:36:00 AM 29.5720 108.0768 287° West  Level Estimated
Tue 10:37:00 AM 29.5981 107.9770 287° West  Level Estimated
Tue 10:38:00 AM 29.6241 107.8772 287° West  Level Estimated
Tue 10:39:00 AM 29.6500 107.7773 287° West  Level Estimated
Tue 10:40:00 AM 29.6759 107.6774 287° West  Level Estimated
Tue 10:41:00 AM 29.7017 107.5774 287° West  Level Estimated
Tue 10:42:00 AM 29.7274 107.4774 287° West  Level Estimated
Tue 10:43:00 AM 29.7530 107.3773 286° West  Level Estimated
Tue 10:44:00 AM 29.7786 107.2771 286° West  Level Estimated
Tue 10:45:00 AM 29.8041 107.1769 286° West  Level Estimated
Tue 10:46:00 AM 29.8295 107.0767 286° West  Level Estimated
Tue 10:47:00 AM 29.8548 106.9764 286° West  Level Estimated
Tue 10:48:00 AM 29.8801 106.8761 286° West  Level Estimated
Tue 10:49:00 AM 29.9053 106.7757 286° West  Level Estimated
Tue 10:50:00 AM 29.9304 106.6752 286° West  Level Estimated
Tue 10:51:00 AM 29.9554 106.5747 286° West  Level Estimated
Tue 10:52:00 AM 29.9804 106.4742 286° West  Level Estimated
Tue 10:53:00 AM 30.0052 106.3736 286° West  Level Estimated
Tue 10:54:00 AM 30.0301 106.2729 286° West  Level Estimated
Tue 10:55:00 AM 30.0548 106.1722 286° West  Level Estimated
Tue 10:56:00 AM 30.0794 106.0715 286° West  Level Estimated
Tue 10:57:00 AM 30.1040 105.9707 286° West  Level Estimated
Tue 10:58:00 AM 30.1285 105.8699 286° West  Level Estimated
Tue 10:59:00 AM 30.1529 105.7690 286° West  Level Estimated
Tue 11:00:00 AM 30.1772 105.6680 286° West  Level Estimated
Tue 11:01:00 AM 30.2015 105.5670 286° West  Level Estimated
Tue 11:02:00 AM 30.2257 105.4660 286° West  Level Estimated
Tue 11:03:00 AM 30.2498 105.3649 285° West  Level Estimated
Tue 11:04:00 AM 30.2738 105.2637 285° West  Level Estimated
Tue 11:05:00 AM 30.2978 105.1625 285° West  Level Estimated
Tue 11:06:00 AM 30.3217 105.0613 285° West  Level Estimated
Tue 11:07:00 AM 30.3455 104.9600 285° West  Level Estimated
Tue 11:08:00 AM 30.3692 104.8587 285° West  Level Estimated
Tue 11:09:00 AM 30.3928 104.7573 285° West  Level Estimated
Tue 11:10:00 AM 30.4164 104.6558 285° West  Level Estimated
Tue 11:11:00 AM 30.4399 104.5543 285° West  Level Estimated
Tue 11:12:00 AM 30.4633 104.4528 285° West  Level Estimated
Tue 11:13:00 AM 30.4866 104.3512 285° West  Level Estimated
Tue 11:14:00 AM 30.5099 104.2496 285° West  Level Estimated
Tue 11:15:00 AM 30.5330 104.1479 285° West  Level Estimated
Tue 11:16:00 AM 30.5561 104.0462 285° West  Level Estimated
Tue 11:17:00 AM 30.5785 103.9471 285° West  Level Estimated
Tue 11:18:00 AM 30.5785 103.9471 North  Level Estimated
Tue 11:19:00 AM 30.5785 103.9471 North  Level Estimated
Tue 11:20:00 AM 30.5785 103.9471 North  Level Estimated
Tue 11:21:00 AM 30.5785 103.9471 North  Level Estimated
Tue 11:22:00 AM 30.5785 103.9471 North  Level Estimated
Tue 11:23:00 AM 30.5785 103.9471 North  Level Estimated
Tue 11:24:00 AM 30.5785 103.9471 North  Level Estimated
Tue 11:25:00 AM 30.5785 103.9471 North  Level Estimated
Tue 11:26:00 AM 30.5785 103.9471 North  Level Estimated
Tue 11:27:00 AM 30.5785 103.9471 North  Level Estimated
Tue 11:28:00 AM 30.5785 103.9471 North  Level Estimated
Tue 11:29:00 AM 30.5785 103.9471 North  Level Estimated
Tue 11:30:00 AM 30.5785 103.9471 North  Level Estimated
Tue 11:31:00 AM 30.5785 103.9471 North  Level Estimated
Tue 11:32:00 AM 30.5785 103.9471 North  Level Estimated
Tue 11:33:00 AM 30.5785 103.9471 North  Level Estimated

Login

Don't have an account? Register now (free) for customized features, flight alerts, and more!